sensor_id;sensor_type;location;lat;lon;timestamp;pressure;altitude;pressure_sealevel;temperature;humidity
28628;BME280;15815;46.760;19.604;2022-07-06T00:02:15;100235.31;;;22.59;69.79
28628;BME280;15815;46.760;19.604;2022-07-06T00:04:41;100240.25;;;22.59;69.53
28628;BME280;15815;46.760;19.604;2022-07-06T00:07:06;100239.16;;;22.56;69.04
28628;BME280;15815;46.760;19.604;2022-07-06T00:09:32;100248.25;;;22.55;69.09
28628;BME280;15815;46.760;19.604;2022-07-06T00:11:57;100249.53;;;22.54;68.85
28628;BME280;15815;46.760;19.604;2022-07-06T00:14:23;100245.09;;;22.52;68.69
28628;BME280;15815;46.760;19.604;2022-07-06T00:16:48;100247.66;;;22.50;68.30
28628;BME280;15815;46.760;19.604;2022-07-06T00:19:14;100252.28;;;22.48;68.27
28628;BME280;15815;46.760;19.604;2022-07-06T00:21:39;100251.16;;;22.45;68.11
28628;BME280;15815;46.760;19.604;2022-07-06T00:24:05;100248.50;;;22.42;67.77
28628;BME280;15815;46.760;19.604;2022-07-06T00:26:30;100255.50;;;22.41;67.71
28628;BME280;15815;46.760;19.604;2022-07-06T00:28:55;100250.25;;;22.39;67.71
28628;BME280;15815;46.760;19.604;2022-07-06T00:31:21;100254.41;;;22.38;67.48
28628;BME280;15815;46.760;19.604;2022-07-06T00:33:46;100248.69;;;22.38;67.32
28628;BME280;15815;46.760;19.604;2022-07-06T00:36:12;100252.81;;;22.37;67.27
28628;BME280;15815;46.760;19.604;2022-07-06T00:38:37;100259.03;;;22.36;67.27
28628;BME280;15815;46.760;19.604;2022-07-06T00:41:03;100254.00;;;22.31;67.30
28628;BME280;15815;46.760;19.604;2022-07-06T00:43:28;100254.00;;;22.31;67.15
28628;BME280;15815;46.760;19.604;2022-07-06T00:45:53;100254.34;;;22.24;67.15
28628;BME280;15815;46.760;19.604;2022-07-06T00:48:19;100251.19;;;22.22;67.14
28628;BME280;15815;46.760;19.604;2022-07-06T00:50:44;100255.34;;;22.20;67.12
28628;BME280;15815;46.760;19.604;2022-07-06T00:53:09;100247.22;;;22.19;67.33
28628;BME280;15815;46.760;19.604;2022-07-06T00:55:38;100256.28;;;22.17;67.36
28628;BME280;15815;46.760;19.604;2022-07-06T00:58:08;100249.75;;;22.17;67.48
28628;BME280;15815;46.760;19.604;2022-07-06T01:00:35;100253.91;;;22.16;67.48
28628;BME280;15815;46.760;19.604;2022-07-06T01:03:01;100247.38;;;22.15;67.37
28628;BME280;15815;46.760;19.604;2022-07-06T01:05:27;100247.38;;;22.15;67.33
28628;BME280;15815;46.760;19.604;2022-07-06T01:07:53;100243.25;;;22.16;67.35
28628;BME280;15815;46.760;19.604;2022-07-06T01:10:20;100242.47;;;22.16;66.98
28628;BME280;15815;46.760;19.604;2022-07-06T01:12:46;100235.94;;;22.15;66.84
28628;BME280;15815;46.760;19.604;2022-07-06T01:15:22;100235.34;;;22.11;66.90
28628;BME280;15815;46.760;19.604;2022-07-06T01:17:48;100236.00;;;22.06;66.73
28628;BME280;15815;46.760;19.604;2022-07-06T01:20:22;100238.56;;;22.04;66.82
28628;BME280;15815;46.760;19.604;2022-07-06T01:22:50;100239.03;;;22.03;66.93
28628;BME280;15815;46.760;19.604;2022-07-06T01:25:16;100234.28;;;22.00;66.92
28628;BME280;15815;46.760;19.604;2022-07-06T01:27:42;100235.06;;;22.00;66.77
28628;BME280;15815;46.760;19.604;2022-07-06T01:30:12;100228.84;;;22.02;67.19
28628;BME280;15815;46.760;19.604;2022-07-06T01:32:39;100229.81;;;21.99;67.04
28628;BME280;15815;46.760;19.604;2022-07-06T01:35:06;100227.94;;;21.96;67.06
28628;BME280;15815;46.760;19.604;2022-07-06T01:37:32;100242.88;;;21.90;67.00
28628;BME280;15815;46.760;19.604;2022-07-06T01:40:03;100242.28;;;21.86;67.37
28628;BME280;15815;46.760;19.604;2022-07-06T01:42:29;100239.59;;;21.83;67.55
28628;BME280;15815;46.760;19.604;2022-07-06T01:44:55;100244.22;;;21.80;67.77
28628;BME280;15815;46.760;19.604;2022-07-06T01:47:20;100238.69;;;21.77;67.80
28628;BME280;15815;46.760;19.604;2022-07-06T01:49:46;100237.41;;;21.78;67.91
28628;BME280;15815;46.760;19.604;2022-07-06T01:52:12;100230.59;;;21.75;67.78
28628;BME280;15815;46.760;19.604;2022-07-06T01:54:37;100234.22;;;21.76;67.91
28628;BME280;15815;46.760;19.604;2022-07-06T01:57:03;100248.03;;;21.77;67.93
28628;BME280;15815;46.760;19.604;2022-07-06T01:59:28;100236.78;;;21.74;67.88
28628;BME280;15815;46.760;19.604;2022-07-06T02:01:54;100234.41;;;21.72;68.02
28628;BME280;15815;46.760;19.604;2022-07-06T02:04:19;100230.94;;;21.68;68.03
28628;BME280;15815;46.760;19.604;2022-07-06T02:06:45;100234.44;;;21.63;68.26
28628;BME280;15815;46.760;19.604;2022-07-06T02:09:10;100233.81;;;21.59;68.23
28628;BME280;15815;46.760;19.604;2022-07-06T02:11:35;100232.22;;;21.58;68.44
28628;BME280;15815;46.760;19.604;2022-07-06T02:14:01;100227.78;;;21.57;68.49
28628;BME280;15815;46.760;19.604;2022-07-06T02:16:26;100238.91;;;21.55;68.46
28628;BME280;15815;46.760;19.604;2022-07-06T02:18:52;100235.75;;;21.53;68.97
28628;BME280;15815;46.760;19.604;2022-07-06T02:21:17;100238.31;;;21.51;68.53
28628;BME280;15815;46.760;19.604;2022-07-06T02:23:42;100248.16;;;21.50;68.73
28628;BME280;15815;46.760;19.604;2022-07-06T02:26:08;100253.09;;;21.49;68.77
28628;BME280;15815;46.760;19.604;2022-07-06T02:28:33;100245.00;;;21.48;68.78
28628;BME280;15815;46.760;19.604;2022-07-06T02:30:59;100244.69;;;21.46;68.77
28628;BME280;15815;46.760;19.604;2022-07-06T02:33:24;100244.38;;;21.44;68.76
28628;BME280;15815;46.760;19.604;2022-07-06T02:35:49;100247.41;;;21.40;68.89
28628;BME280;15815;46.760;19.604;2022-07-06T02:38:15;100242.66;;;21.37;68.89
28628;BME280;15815;46.760;19.604;2022-07-06T02:40:40;100245.66;;;21.34;68.96
28628;BME280;15815;46.760;19.604;2022-07-06T02:43:06;100247.41;;;21.31;69.05
28628;BME280;15815;46.760;19.604;2022-07-06T02:45:32;100246.78;;;21.27;69.09
28628;BME280;15815;46.760;19.604;2022-07-06T02:47:58;100245.34;;;21.22;68.94
28628;BME280;15815;46.760;19.604;2022-07-06T02:50:24;100246.31;;;21.19;69.42
28628;BME280;15815;46.760;19.604;2022-07-06T02:52:49;100248.53;;;21.15;69.40
28628;BME280;15815;46.760;19.604;2022-07-06T02:55:15;100247.59;;;21.09;69.77
28628;BME280;15815;46.760;19.604;2022-07-06T02:57:41;100239.97;;;21.06;69.86
28628;BME280;15815;46.760;19.604;2022-07-06T03:00:07;100252.84;;;21.02;69.85
28628;BME280;15815;46.760;19.604;2022-07-06T03:02:33;100249.84;;;20.96;69.88
28628;BME280;15815;46.760;19.604;2022-07-06T03:04:58;100254.91;;;20.92;70.16
28628;BME280;15815;46.760;19.604;2022-07-06T03:07:24;100246.84;;;20.90;70.38
28628;BME280;15815;46.760;19.604;2022-07-06T03:09:49;100241.59;;;20.89;70.22
28628;BME280;15815;46.760;19.604;2022-07-06T03:12:14;100240.81;;;20.88;70.51
28628;BME280;15815;46.760;19.604;2022-07-06T03:14:41;100235.75;;;20.83;70.55
28628;BME280;15815;46.760;19.604;2022-07-06T03:17:06;100240.31;;;20.81;70.54
28628;BME280;15815;46.760;19.604;2022-07-06T03:19:32;100247.47;;;20.76;70.64
28628;BME280;15815;46.760;19.604;2022-07-06T03:21:57;100248.72;;;20.75;70.78
28628;BME280;15815;46.760;19.604;2022-07-06T03:24:23;100255.41;;;20.72;70.70
28628;BME280;15815;46.760;19.604;2022-07-06T03:26:48;100250.97;;;20.71;70.96
28628;BME280;15815;46.760;19.604;2022-07-06T03:29:14;100252.72;;;20.68;71.02
28628;BME280;15815;46.760;19.604;2022-07-06T03:31:39;100257.78;;;20.64;71.35
28628;BME280;15815;46.760;19.604;2022-07-06T03:34:04;100255.41;;;20.63;71.17
28628;BME280;15815;46.760;19.604;2022-07-06T03:36:30;100254.00;;;20.58;70.99
28628;BME280;15815;46.760;19.604;2022-07-06T03:38:55;100259.38;;;20.56;71.31
28628;BME280;15815;46.760;19.604;2022-07-06T03:41:20;100243.50;;;20.55;71.48
28628;BME280;15815;46.760;19.604;2022-07-06T03:43:46;100249.22;;;20.55;71.88
28628;BME280;15815;46.760;19.604;2022-07-06T03:46:11;100241.91;;;20.54;71.54
28628;BME280;15815;46.760;19.604;2022-07-06T03:48:36;100253.19;;;20.58;71.56
28628;BME280;15815;46.760;19.604;2022-07-06T03:51:02;100250.81;;;20.56;71.44
28628;BME280;15815;46.760;19.604;2022-07-06T03:53:27;100258.59;;;20.56;71.33
28628;BME280;15815;46.760;19.604;2022-07-06T03:55:52;100265.09;;;20.56;71.55
28628;BME280;15815;46.760;19.604;2022-07-06T03:58:36;100254.47;;;20.57;71.61
28628;BME280;15815;46.760;19.604;2022-07-06T04:01:02;100252.25;;;20.61;71.65
28628;BME280;15815;46.760;19.604;2022-07-06T04:03:27;100247.94;;;20.65;71.54
28628;BME280;15815;46.760;19.604;2022-07-06T04:05:53;100263.19;;;20.72;71.46
28628;BME280;15815;46.760;19.604;2022-07-06T04:08:18;100260.63;;;20.74;71.33
28628;BME280;15815;46.760;19.604;2022-07-06T04:10:45;100255.56;;;20.78;71.12
28628;BME280;15815;46.760;19.604;2022-07-06T04:13:10;100259.84;;;20.82;71.14
28628;BME280;15815;46.760;19.604;2022-07-06T04:15:35;100268.91;;;20.90;71.13
28628;BME280;15815;46.760;19.604;2022-07-06T04:18:01;100260.94;;;20.94;70.88
28628;BME280;15815;46.760;19.604;2022-07-06T04:20:26;100259.81;;;21.01;70.66
28628;BME280;15815;46.760;19.604;2022-07-06T04:22:52;100261.25;;;21.05;70.09
28628;BME280;15815;46.760;19.604;2022-07-06T04:25:18;100263.47;;;21.10;70.26
28628;BME280;15815;46.760;19.604;2022-07-06T04:27:44;100266.78;;;21.18;69.59
28628;BME280;15815;46.760;19.604;2022-07-06T04:30:10;100255.84;;;21.25;69.84
28628;BME280;15815;46.760;19.604;2022-07-06T04:32:36;100257.09;;;21.34;69.06
28628;BME280;15815;46.760;19.604;2022-07-06T04:35:02;100256.78;;;21.41;68.58
28628;BME280;15815;46.760;19.604;2022-07-06T04:37:27;100245.78;;;21.48;68.73
28628;BME280;15815;46.760;19.604;2022-07-06T04:39:53;100245.59;;;21.52;68.67
28628;BME280;15815;46.760;19.604;2022-07-06T04:42:18;100252.25;;;21.58;68.22
28628;BME280;15815;46.760;19.604;2022-07-06T04:44:44;100251.13;;;21.65;67.98
28628;BME280;15815;46.760;19.604;2022-07-06T04:47:10;100238.25;;;21.69;67.50
28628;BME280;15815;46.760;19.604;2022-07-06T04:49:36;100238.84;;;21.73;67.36
28628;BME280;15815;46.760;19.604;2022-07-06T04:52:01;100247.75;;;21.75;67.82
28628;BME280;15815;46.760;19.604;2022-07-06T04:54:27;100242.63;;;21.79;66.71
28628;BME280;15815;46.760;19.604;2022-07-06T04:56:52;100240.69;;;21.85;66.73
28628;BME280;15815;46.760;19.604;2022-07-06T04:59:17;100245.75;;;21.90;66.80
28628;BME280;15815;46.760;19.604;2022-07-06T05:01:43;100256.06;;;21.97;66.73
28628;BME280;15815;46.760;19.604;2022-07-06T05:04:08;100249.53;;;22.06;66.30
28628;BME280;15815;46.760;19.604;2022-07-06T05:06:33;100258.22;;;22.11;65.70
28628;BME280;15815;46.760;19.604;2022-07-06T05:08:59;100265.19;;;22.19;65.78
28628;BME280;15815;46.760;19.604;2022-07-06T05:11:28;100258.91;;;22.30;65.15
28628;BME280;15815;46.760;19.604;2022-07-06T05:13:54;100266.16;;;22.40;65.64
28628;BME280;15815;46.760;19.604;2022-07-06T05:16:20;100258.00;;;22.48;65.09
28628;BME280;15815;46.760;19.604;2022-07-06T05:18:45;100262.88;;;22.57;64.61
28628;BME280;15815;46.760;19.604;2022-07-06T05:21:10;100265.06;;;22.62;64.09
28628;BME280;15815;46.760;19.604;2022-07-06T05:23:36;100264.38;;;22.67;64.17
28628;BME280;15815;46.760;19.604;2022-07-06T05:26:01;100267.53;;;22.69;64.41
28628;BME280;15815;46.760;19.604;2022-07-06T05:28:27;100270.22;;;22.72;65.13
28628;BME280;15815;46.760;19.604;2022-07-06T05:30:52;100270.00;;;22.85;64.91
28628;BME280;15815;46.760;19.604;2022-07-06T05:33:17;100260.63;;;22.99;63.50
28628;BME280;15815;46.760;19.604;2022-07-06T05:35:43;100272.59;;;23.12;62.61
28628;BME280;15815;46.760;19.604;2022-07-06T05:38:08;100276.16;;;23.22;62.23
28628;BME280;15815;46.760;19.604;2022-07-06T05:40:33;100282.19;;;23.24;62.18
28628;BME280;15815;46.760;19.604;2022-07-06T05:42:59;100273.41;;;23.28;61.46
28628;BME280;15815;46.760;19.604;2022-07-06T05:45:24;100277.78;;;23.38;61.84
28628;BME280;15815;46.760;19.604;2022-07-06T05:47:50;100279.53;;;23.50;61.37
28628;BME280;15815;46.760;19.604;2022-07-06T05:50:34;100282.06;;;23.57;61.08
28628;BME280;15815;46.760;19.604;2022-07-06T05:53:03;100283.63;;;23.58;60.40
28628;BME280;15815;46.760;19.604;2022-07-06T05:55:29;100284.22;;;23.62;60.41
28628;BME280;15815;46.760;19.604;2022-07-06T05:57:55;100285.31;;;23.65;60.80
28628;BME280;15815;46.760;19.604;2022-07-06T06:00:24;100276.78;;;23.70;60.87
28628;BME280;15815;46.760;19.604;2022-07-06T06:02:50;100287.66;;;23.81;61.20
28628;BME280;15815;46.760;19.604;2022-07-06T06:05:17;100281.72;;;23.85;60.27
28628;BME280;15815;46.760;19.604;2022-07-06T06:07:42;100288.63;;;23.93;60.26
28628;BME280;15815;46.760;19.604;2022-07-06T06:10:11;100289.19;;;24.12;60.23
28628;BME280;15815;46.760;19.604;2022-07-06T06:12:37;100282.78;;;24.37;59.28
28628;BME280;15815;46.760;19.604;2022-07-06T06:15:03;100282.06;;;24.62;58.39
28628;BME280;15815;46.760;19.604;2022-07-06T06:17:29;100282.56;;;24.81;58.20
28628;BME280;15815;46.760;19.604;2022-07-06T06:19:55;100286.16;;;24.96;57.36
28628;BME280;15815;46.760;19.604;2022-07-06T06:22:21;100286.13;;;25.17;57.70
28628;BME280;15815;46.760;19.604;2022-07-06T06:24:46;100291.84;;;25.37;56.81
28628;BME280;15815;46.760;19.604;2022-07-06T06:27:11;100295.13;;;25.50;56.00
28628;BME280;15815;46.760;19.604;2022-07-06T06:29:37;100295.41;;;25.52;56.17
28628;BME280;15815;46.760;19.604;2022-07-06T06:32:03;100295.78;;;25.40;55.95
28628;BME280;15815;46.760;19.604;2022-07-06T06:34:30;100299.91;;;25.33;55.92
28628;BME280;15815;46.760;19.604;2022-07-06T06:36:55;100316.09;;;25.31;56.36
28628;BME280;15815;46.760;19.604;2022-07-06T06:39:21;100309.28;;;25.28;56.26
28628;BME280;15815;46.760;19.604;2022-07-06T06:41:46;100306.25;;;25.17;55.80
28628;BME280;15815;46.760;19.604;2022-07-06T06:44:11;100312.25;;;25.13;56.32
28628;BME280;15815;46.760;19.604;2022-07-06T06:46:37;100311.16;;;25.11;56.62
28628;BME280;15815;46.760;19.604;2022-07-06T06:49:03;100314.00;;;25.05;57.18
28628;BME280;15815;46.760;19.604;2022-07-06T06:51:28;100319.59;;;24.94;57.35
28628;BME280;15815;46.760;19.604;2022-07-06T06:53:54;100323.94;;;24.89;57.25
28628;BME280;15815;46.760;19.604;2022-07-06T06:56:19;100319.78;;;24.90;57.37
28628;BME280;15815;46.760;19.604;2022-07-06T06:58:44;100321.97;;;24.95;57.46
28628;BME280;15815;46.760;19.604;2022-07-06T07:01:10;100335.13;;;25.02;57.67
28628;BME280;15815;46.760;19.604;2022-07-06T07:03:35;100341.38;;;25.01;57.10
28628;BME280;15815;46.760;19.604;2022-07-06T07:06:00;100336.63;;;24.98;57.76
28628;BME280;15815;46.760;19.604;2022-07-06T07:08:26;100333.47;;;24.95;57.85
28628;BME280;15815;46.760;19.604;2022-07-06T07:10:51;100340.19;;;24.92;57.14
28628;BME280;15815;46.760;19.604;2022-07-06T07:13:17;100335.53;;;24.95;58.06
28628;BME280;15815;46.760;19.604;2022-07-06T07:15:42;100330.66;;;25.01;57.59
28628;BME280;15815;46.760;19.604;2022-07-06T07:18:08;100331.28;;;25.11;57.23
28628;BME280;15815;46.760;19.604;2022-07-06T07:20:33;100339.28;;;25.21;57.76
28628;BME280;15815;46.760;19.604;2022-07-06T07:22:59;100350.00;;;25.21;56.06
28628;BME280;15815;46.760;19.604;2022-07-06T07:25:25;100345.84;;;25.02;56.47
28628;BME280;15815;46.760;19.604;2022-07-06T07:27:51;100338.78;;;25.03;57.04
28628;BME280;15815;46.760;19.604;2022-07-06T07:30:16;100352.59;;;24.99;57.46
28628;BME280;15815;46.760;19.604;2022-07-06T07:32:42;100349.63;;;24.93;57.66
28628;BME280;15815;46.760;19.604;2022-07-06T07:35:08;100360.47;;;24.83;57.64
28628;BME280;15815;46.760;19.604;2022-07-06T07:37:33;100367.28;;;24.65;57.99
28628;BME280;15815;46.760;19.604;2022-07-06T07:39:59;100361.44;;;24.60;58.46
28628;BME280;15815;46.760;19.604;2022-07-06T07:42:24;100364.97;;;24.49;59.35
28628;BME280;15815;46.760;19.604;2022-07-06T07:44:49;100364.75;;;24.53;58.76
28628;BME280;15815;46.760;19.604;2022-07-06T07:47:15;100375.59;;;24.63;59.09
28628;BME280;15815;46.760;19.604;2022-07-06T07:49:40;100380.22;;;24.76;58.54
28628;BME280;15815;46.760;19.604;2022-07-06T07:52:06;100379.06;;;24.88;58.25
28628;BME280;15815;46.760;19.604;2022-07-06T07:54:31;100376.88;;;24.98;57.74
28628;BME280;15815;46.760;19.604;2022-07-06T07:56:56;100383.00;;;25.05;57.59
28628;BME280;15815;46.760;19.604;2022-07-06T07:59:22;100380.97;;;25.11;57.65
28628;BME280;15815;46.760;19.604;2022-07-06T08:01:47;100381.31;;;25.19;57.17
28628;BME280;15815;46.760;19.604;2022-07-06T08:04:13;100387.97;;;25.25;56.82
28628;BME280;15815;46.760;19.604;2022-07-06T08:06:38;100388.34;;;25.38;57.09
28628;BME280;15815;46.760;19.604;2022-07-06T08:09:04;100396.91;;;25.53;56.58
28628;BME280;15815;46.760;19.604;2022-07-06T08:11:30;100403.72;;;25.55;55.21
28628;BME280;15815;46.760;19.604;2022-07-06T08:13:55;100409.94;;;25.48;55.42
28628;BME280;15815;46.760;19.604;2022-07-06T08:16:21;100409.94;;;25.48;55.13
28628;BME280;15815;46.760;19.604;2022-07-06T08:18:46;100419.84;;;25.68;54.70
28628;BME280;15815;46.760;19.604;2022-07-06T08:21:11;100426.00;;;25.81;54.43
28628;BME280;15815;46.760;19.604;2022-07-06T08:23:37;100420.34;;;25.92;54.23
28628;BME280;15815;46.760;19.604;2022-07-06T08:26:02;100433.00;;;26.00;54.39
28628;BME280;15815;46.760;19.604;2022-07-06T08:28:28;100435.28;;;26.22;53.87
28628;BME280;15815;46.760;19.604;2022-07-06T08:30:54;100430.72;;;26.36;53.44
28628;BME280;15815;46.760;19.604;2022-07-06T08:33:20;100428.44;;;26.45;53.16
28628;BME280;15815;46.760;19.604;2022-07-06T08:35:45;100425.56;;;26.45;53.38
28628;BME280;15815;46.760;19.604;2022-07-06T08:38:10;100429.78;;;26.50;53.04
28628;BME280;15815;46.760;19.604;2022-07-06T08:40:38;100426.66;;;26.54;52.84
28628;BME280;15815;46.760;19.604;2022-07-06T08:43:05;100421.50;;;26.63;52.45
28628;BME280;15815;46.760;19.604;2022-07-06T08:45:33;100417.06;;;26.68;53.71
28628;BME280;15815;46.760;19.604;2022-07-06T08:48:05;100415.72;;;26.63;52.21
28628;BME280;15815;46.760;19.604;2022-07-06T08:50:31;100419.91;;;26.62;52.27
28628;BME280;15815;46.760;19.604;2022-07-06T08:52:57;100412.09;;;26.68;52.57
28628;BME280;15815;46.760;19.604;2022-07-06T08:55:24;100409.72;;;26.67;52.68
28628;BME280;15815;46.760;19.604;2022-07-06T08:57:50;100404.25;;;26.74;52.15
28628;BME280;15815;46.760;19.604;2022-07-06T09:00:15;100405.06;;;26.80;51.94
28628;BME280;15815;46.760;19.604;2022-07-06T09:02:41;100401.47;;;26.86;51.73
28628;BME280;15815;46.760;19.604;2022-07-06T09:05:08;100403.88;;;26.98;51.77
28628;BME280;15815;46.760;19.604;2022-07-06T09:07:34;100412.41;;;27.24;53.06
28628;BME280;15815;46.760;19.604;2022-07-06T09:10:00;100402.78;;;27.50;51.00
28628;BME280;15815;46.760;19.604;2022-07-06T09:12:27;100414.91;;;27.65;49.75
28628;BME280;15815;46.760;19.604;2022-07-06T09:14:56;100418.88;;;27.67;48.51
28628;BME280;15815;46.760;19.604;2022-07-06T09:17:25;100409.63;;;27.58;48.88
28628;BME280;15815;46.760;19.604;2022-07-06T09:19:50;100424.84;;;27.53;49.04
28628;BME280;15815;46.760;19.604;2022-07-06T09:22:27;100417.84;;;27.11;48.89
28628;BME280;15815;46.760;19.604;2022-07-06T09:24:53;100417.31;;;27.07;49.47
28628;BME280;15815;46.760;19.604;2022-07-06T09:27:18;100425.88;;;26.96;49.82
28628;BME280;15815;46.760;19.604;2022-07-06T09:29:44;100422.00;;;26.99;50.07
28628;BME280;15815;46.760;19.604;2022-07-06T09:32:10;100416.56;;;27.12;49.44
28628;BME280;15815;46.760;19.604;2022-07-06T09:34:43;100421.88;;;27.30;49.18
28628;BME280;15815;46.760;19.604;2022-07-06T09:37:09;100424.28;;;27.43;49.19
28628;BME280;15815;46.760;19.604;2022-07-06T09:39:35;100427.19;;;27.49;48.79
28628;BME280;15815;46.760;19.604;2022-07-06T09:42:03;100429.28;;;27.48;47.67
28628;BME280;15815;46.760;19.604;2022-07-06T09:44:33;100424.28;;;27.43;48.35
28628;BME280;15815;46.760;19.604;2022-07-06T09:47:00;100429.28;;;27.43;48.71
28628;BME280;15815;46.760;19.604;2022-07-06T09:49:26;100422.66;;;27.36;48.59
28628;BME280;15815;46.760;19.604;2022-07-06T09:51:57;100436.81;;;27.29;48.22
28628;BME280;15815;46.760;19.604;2022-07-06T09:54:23;100433.41;;;27.30;48.02
28628;BME280;15815;46.760;19.604;2022-07-06T09:56:49;100429.72;;;27.24;48.81
28628;BME280;15815;46.760;19.604;2022-07-06T09:59:23;100422.38;;;27.23;48.98
28628;BME280;15815;46.760;19.604;2022-07-06T10:01:54;100423.63;;;27.11;49.75
28628;BME280;15815;46.760;19.604;2022-07-06T10:04:20;100430.00;;;27.32;48.45
28628;BME280;15815;46.760;19.604;2022-07-06T10:06:46;100430.81;;;27.38;48.01
28628;BME280;15815;46.760;19.604;2022-07-06T10:09:13;100434.00;;;27.46;47.38
28628;BME280;15815;46.760;19.604;2022-07-06T10:11:41;100429.34;;;27.65;47.46
28628;BME280;15815;46.760;19.604;2022-07-06T10:14:07;100434.56;;;27.61;47.06
28628;BME280;15815;46.760;19.604;2022-07-06T10:16:36;100446.09;;;27.50;47.51
28628;BME280;15815;46.760;19.604;2022-07-06T10:19:05;100442.41;;;27.49;47.56
28628;BME280;15815;46.760;19.604;2022-07-06T10:21:31;100439.31;;;27.64;48.27
28628;BME280;15815;46.760;19.604;2022-07-06T10:23:57;100438.59;;;27.75;48.06
28628;BME280;15815;46.760;19.604;2022-07-06T10:26:25;100441.19;;;27.73;47.24
28628;BME280;15815;46.760;19.604;2022-07-06T10:28:51;100444.34;;;27.75;47.80
28628;BME280;15815;46.760;19.604;2022-07-06T10:31:18;100443.84;;;27.76;47.79
28628;BME280;15815;46.760;19.604;2022-07-06T10:33:45;100442.25;;;27.86;47.12
28628;BME280;15815;46.760;19.604;2022-07-06T10:36:11;100442.78;;;27.90;46.49
28628;BME280;15815;46.760;19.604;2022-07-06T10:38:37;100453.06;;;28.02;47.33
28628;BME280;15815;46.760;19.604;2022-07-06T10:41:07;100440.47;;;28.17;46.52
28628;BME280;15815;46.760;19.604;2022-07-06T10:43:37;100430.75;;;28.20;46.40
28628;BME280;15815;46.760;19.604;2022-07-06T10:48:46;100436.78;;;28.11;46.45
28628;BME280;15815;46.760;19.604;2022-07-06T10:51:22;100426.81;;;28.12;46.18
28628;BME280;15815;46.760;19.604;2022-07-06T10:53:55;100422.88;;;28.15;48.18
28628;BME280;15815;46.760;19.604;2022-07-06T10:56:31;100427.59;;;28.12;47.52
28628;BME280;15815;46.760;19.604;2022-07-06T10:59:02;100426.53;;;28.21;48.45
28628;BME280;15815;46.760;19.604;2022-07-06T11:01:28;100427.91;;;28.31;46.97
28628;BME280;15815;46.760;19.604;2022-07-06T11:06:26;100426.03;;;28.39;46.08
28628;BME280;15815;46.760;19.604;2022-07-06T11:09:08;100436.31;;;28.51;45.92
28628;BME280;15815;46.760;19.604;2022-07-06T11:19:11;100416.78;;;28.74;44.68
28628;BME280;15815;46.760;19.604;2022-07-06T11:21:50;100416.28;;;28.65;44.49
28628;BME280;15815;46.760;19.604;2022-07-06T11:24:20;100416.28;;;28.65;45.92
28628;BME280;15815;46.760;19.604;2022-07-06T11:26:49;100413.69;;;28.61;44.69
28628;BME280;15815;46.760;19.604;2022-07-06T11:29:15;100414.19;;;28.65;44.47
28628;BME280;15815;46.760;19.604;2022-07-06T11:31:44;100409.97;;;28.72;44.16
28628;BME280;15815;46.760;19.604;2022-07-06T11:34:12;100408.41;;;28.76;44.08
28628;BME280;15815;46.760;19.604;2022-07-06T11:36:42;100411.56;;;28.78;44.11
28628;BME280;15815;46.760;19.604;2022-07-06T11:39:07;100403.94;;;28.86;45.07
28628;BME280;15815;46.760;19.604;2022-07-06T11:41:34;100404.16;;;28.94;44.29
28628;BME280;15815;46.760;19.604;2022-07-06T11:44:00;100408.63;;;28.95;44.52
28628;BME280;15815;46.760;19.604;2022-07-06T11:46:35;100409.69;;;28.92;44.55
28628;BME280;15815;46.760;19.604;2022-07-06T11:49:04;100408.09;;;28.97;43.30
28628;BME280;15815;46.760;19.604;2022-07-06T11:51:35;100413.34;;;28.98;42.29
28628;BME280;15815;46.760;19.604;2022-07-06T11:54:07;100404.38;;;29.07;42.64
28628;BME280;15815;46.760;19.604;2022-07-06T11:56:34;100398.78;;;29.20;42.06
28628;BME280;15815;46.760;19.604;2022-07-06T11:58:59;100404.25;;;29.35;43.69
28628;BME280;15815;46.760;19.604;2022-07-06T12:01:27;100394.47;;;29.49;42.56
28628;BME280;15815;46.760;19.604;2022-07-06T12:03:57;100393.41;;;29.52;42.11
28628;BME280;15815;46.760;19.604;2022-07-06T12:06:24;100388.44;;;29.42;41.46
28628;BME280;15815;46.760;19.604;2022-07-06T12:08:52;100394.88;;;29.18;42.47
28628;BME280;15815;46.760;19.604;2022-07-06T12:11:25;100393.84;;;29.10;43.82
28628;BME280;15815;46.760;19.604;2022-07-06T12:13:53;100391.00;;;29.04;43.38
28628;BME280;15815;46.760;19.604;2022-07-06T12:16:19;100391.50;;;28.97;43.79
28628;BME280;15815;46.760;19.604;2022-07-06T12:18:47;100387.03;;;29.02;42.46
28628;BME280;15815;46.760;19.604;2022-07-06T12:21:15;100377.28;;;29.10;42.45
28628;BME280;15815;46.760;19.604;2022-07-06T12:23:48;100371.72;;;29.18;42.05
28628;BME280;15815;46.760;19.604;2022-07-06T12:26:15;100379.28;;;29.27;42.46
28628;BME280;15815;46.760;19.604;2022-07-06T12:28:42;100374.25;;;29.38;40.58
28628;BME280;15815;46.760;19.604;2022-07-06T12:31:08;100360.81;;;29.41;41.11
28628;BME280;15815;46.760;19.604;2022-07-06T12:33:34;100345.00;;;29.42;39.75
28628;BME280;15815;46.760;19.604;2022-07-06T12:36:13;100345.25;;;29.44;42.56
28628;BME280;15815;46.760;19.604;2022-07-06T12:38:47;100348.13;;;29.49;41.89
28628;BME280;15815;46.760;19.604;2022-07-06T12:41:30;100349.66;;;29.62;38.63
28628;BME280;15815;46.760;19.604;2022-07-06T12:44:20;100353.03;;;29.66;38.30
28628;BME280;15815;46.760;19.604;2022-07-06T12:46:46;100351.19;;;29.68;39.54
28628;BME280;15815;46.760;19.604;2022-07-06T12:49:21;100342.50;;;29.68;38.50
28628;BME280;15815;46.760;19.604;2022-07-06T12:51:54;100333.56;;;29.66;37.79